createdAt,value
2022-10-23T00:01:52.945Z,8.49
2022-10-23T00:04:22.440Z,8.44
2022-10-23T00:06:50.824Z,8.53
2022-10-23T00:09:22.590Z,8.49
2022-10-23T00:11:51.470Z,8.38
2022-10-23T00:14:21.369Z,8.49
2022-10-23T00:16:51.180Z,8.40
2022-10-23T00:19:19.474Z,8.40
2022-10-23T00:21:47.588Z,8.27
2022-10-23T00:24:15.801Z,8.40
2022-10-23T00:26:44.304Z,8.42
2022-10-23T00:29:12.910Z,8.43
2022-10-23T00:31:43.339Z,8.22
2022-10-23T00:34:13.068Z,8.30
2022-10-23T00:36:41.179Z,8.24
2022-10-23T00:39:09.277Z,8.37
2022-10-23T00:41:37.385Z,8.35
2022-10-23T00:44:08.851Z,8.30
2022-10-23T00:46:38.244Z,8.22
2022-10-23T00:49:07.174Z,8.02
2022-10-23T00:51:40.399Z,8.09
2022-10-23T00:54:25.393Z,8.20
2022-10-23T00:56:55.946Z,8.09
2022-10-23T00:59:24.154Z,8.04
2022-10-23T01:01:52.422Z,7.91
2022-10-23T01:04:20.876Z,8.12
2022-10-23T01:06:55.124Z,8.12
2022-10-23T01:09:29.949Z,8.08
2022-10-23T01:12:01.765Z,7.99
2022-10-23T01:14:35.567Z,8.12
2022-10-23T01:17:07.640Z,8.15
2022-10-23T01:19:48.047Z,8.19
2022-10-23T01:22:34.672Z,8.15
2022-10-23T01:25:05.813Z,8.17
2022-10-23T01:27:38.451Z,8.17
2022-10-23T01:30:08.544Z,8.19
2022-10-23T01:32:42.694Z,8.12
2022-10-23T01:35:14.214Z,8.27
2022-10-23T01:37:45.161Z,8.28
2022-10-23T01:40:16.446Z,8.29
2022-10-23T01:42:50.910Z,8.26
2022-10-23T01:45:23.396Z,8.32
2022-10-23T01:47:52.318Z,8.25
2022-10-23T01:50:21.424Z,8.31
2022-10-23T01:52:49.529Z,8.30
2022-10-23T01:55:18.025Z,8.12
2022-10-23T01:57:49.438Z,8.22
2022-10-23T02:00:19.800Z,8.05
2022-10-23T02:02:49.042Z,8.23
2022-10-23T02:05:19.407Z,8.17
2022-10-23T02:07:47.624Z,8.22
2022-10-23T02:10:16.249Z,8.14
2022-10-23T02:12:50.712Z,8.18
2022-10-23T02:15:25.323Z,8.11
2022-10-23T02:18:00.474Z,8.14
2022-10-23T02:20:30.941Z,8.13
2022-10-23T02:23:02.590Z,8.12
2022-10-23T02:25:34.836Z,8.13
2022-10-23T02:28:07.469Z,8.12
2022-10-23T02:30:37.295Z,8.07
2022-10-23T02:33:06.605Z,7.93
2022-10-23T02:35:36.960Z,7.99
2022-10-23T02:38:05.182Z,7.89
2022-10-23T02:40:36.793Z,7.98
2022-10-23T02:43:10.269Z,7.82
2022-10-23T02:45:43.657Z,7.79
2022-10-23T02:48:14.656Z,7.90
2022-10-23T02:50:50.578Z,7.82
2022-10-23T02:53:22.670Z,7.83
2022-10-23T02:55:59.377Z,7.78
2022-10-23T02:58:34.032Z,7.87
2022-10-23T03:01:05.873Z,7.69
2022-10-23T03:03:37.358Z,7.81
2022-10-23T03:06:05.651Z,7.75
2022-10-23T03:08:42.646Z,7.80
2022-10-23T03:11:10.748Z,7.76
2022-10-23T03:13:40.284Z,7.80
2022-10-23T03:16:10.940Z,7.83
2022-10-23T03:18:39.036Z,7.78
2022-10-23T03:21:07.195Z,7.78
2022-10-23T03:23:35.429Z,7.81
2022-10-23T03:26:03.615Z,7.70
2022-10-23T03:28:31.762Z,7.71
2022-10-23T03:31:02.256Z,7.80
2022-10-23T03:33:30.461Z,7.66
2022-10-23T03:35:59.778Z,7.78
2022-10-23T03:38:27.886Z,7.77
2022-10-23T03:40:55.932Z,7.71
2022-10-23T03:43:23.992Z,7.71
2022-10-23T03:45:52.242Z,7.72
2022-10-23T03:48:21.668Z,7.66
2022-10-23T03:50:49.751Z,7.53
2022-10-23T03:53:17.800Z,7.59
2022-10-23T03:55:46.053Z,7.47
2022-10-23T03:58:14.221Z,7.41
2022-10-23T04:03:10.692Z,7.25
2022-10-23T04:05:40.324Z,7.27
2022-10-23T04:08:08.396Z,7.37
2022-10-23T04:10:36.647Z,7.36
2022-10-23T04:13:04.919Z,7.35
2022-10-23T04:15:33.108Z,7.18
2022-10-23T04:18:01.220Z,7.07
2022-10-23T04:20:29.288Z,7.16
2022-10-23T04:22:58.747Z,7.09
2022-10-23T04:25:26.815Z,7.10
2022-10-23T04:27:54.867Z,7.08
2022-10-23T04:30:23.172Z,7.09
2022-10-23T04:32:51.720Z,7.10
2022-10-23T04:35:19.856Z,7.05
2022-10-23T04:37:47.908Z,7.12
2022-10-23T04:40:17.484Z,7.08
2022-10-23T04:42:45.759Z,7.18
2022-10-23T04:45:14.128Z,7.20
2022-10-23T04:47:42.214Z,7.21
2022-10-23T04:50:10.387Z,7.09
2022-10-23T04:52:38.483Z,6.50
2022-10-23T04:55:08.898Z,7.08
2022-10-23T04:57:38.685Z,7.06
2022-10-23T05:00:10.140Z,6.98
2022-10-23T05:02:38.414Z,6.89
2022-10-23T05:05:08.069Z,6.85
2022-10-23T05:07:36.712Z,6.89
2022-10-23T05:10:05.115Z,6.85
2022-10-23T05:12:33.244Z,6.78
2022-10-23T05:15:02.860Z,6.97
2022-10-23T05:17:34.269Z,6.35
2022-10-23T05:20:05.217Z,6.54
2022-10-23T05:22:36.129Z,7.12
2022-10-23T05:25:05.136Z,7.09
2022-10-23T05:27:33.373Z,7.15
2022-10-23T05:30:03.610Z,7.10
2022-10-23T05:32:35.342Z,6.98
2022-10-23T05:35:08.397Z,7.17
2022-10-23T05:37:38.864Z,7.12
2022-10-23T05:40:07.972Z,7.10
2022-10-23T05:42:38.279Z,7.15
2022-10-23T05:45:12.280Z,6.94
2022-10-23T05:47:40.344Z,7.06
2022-10-23T05:50:08.920Z,7.06
2022-10-23T05:52:37.072Z,7.04
2022-10-23T05:55:05.657Z,6.86
2022-10-23T05:57:34.363Z,7.19
2022-10-23T06:00:02.454Z,7.15
2022-10-23T06:02:32.699Z,7.31
2022-10-23T06:05:02.165Z,7.36
2022-10-23T06:07:33.682Z,7.36
2022-10-23T06:10:04.753Z,7.42
2022-10-23T06:12:33.295Z,7.44
2022-10-23T06:15:01.323Z,7.05
2022-10-23T06:17:29.636Z,7.55
2022-10-23T06:20:02.552Z,7.47
2022-10-23T06:22:30.969Z,7.67
2022-10-23T06:25:00.482Z,7.74
2022-10-23T06:27:28.521Z,7.80
2022-10-23T06:29:56.518Z,7.85
2022-10-23T06:32:24.522Z,7.84
2022-10-23T06:34:52.614Z,7.87
2022-10-23T06:37:22.072Z,7.99
2022-10-23T06:39:50.171Z,8.08
2022-10-23T06:42:18.235Z,8.19
2022-10-23T06:44:46.260Z,8.27
2022-10-23T06:47:14.570Z,8.33
2022-10-23T06:49:42.781Z,8.41
2022-10-23T06:52:14.470Z,8.40
2022-10-23T06:54:58.300Z,8.58
2022-10-23T06:57:26.351Z,8.67
2022-10-23T06:59:54.603Z,8.82
2022-10-23T07:02:23.237Z,8.98
2022-10-23T07:04:51.905Z,9.01
2022-10-23T07:07:19.938Z,9.32
2022-10-23T07:09:48.016Z,9.46
2022-10-23T07:12:17.535Z,9.54
2022-10-23T07:14:45.696Z,9.23
2022-10-23T07:17:13.901Z,9.54
2022-10-23T07:19:42.045Z,10.21
2022-10-23T07:22:12.039Z,10.41
2022-10-23T07:24:43.029Z,10.65
2022-10-23T07:27:11.189Z,10.71
2022-10-23T07:29:40.782Z,11.02
2022-10-23T07:32:09.264Z,11.29
2022-10-23T07:34:37.841Z,11.52
2022-10-23T07:37:06.030Z,11.79
2022-10-23T07:39:34.149Z,11.85
2022-10-23T07:42:02.299Z,12.15
2022-10-23T07:44:30.415Z,12.23
2022-10-23T07:47:00.009Z,12.40
2022-10-23T07:49:28.057Z,12.63
2022-10-23T07:51:58.852Z,12.93
2022-10-23T07:54:28.397Z,13.23
2022-10-23T07:56:56.528Z,13.60
2022-10-23T07:59:24.812Z,13.71
2022-10-23T08:01:56.715Z,13.98
2022-10-23T08:04:27.323Z,14.21
2022-10-23T08:06:56.178Z,14.22
2022-10-23T08:09:24.910Z,14.27
2022-10-23T08:11:53.829Z,14.24
2022-10-23T08:14:22.299Z,14.55
2022-10-23T08:16:50.948Z,14.51
2022-10-23T08:19:19.842Z,14.77
2022-10-23T08:21:50.070Z,15.58
2022-10-23T08:24:19.004Z,16.86
2022-10-23T08:26:47.921Z,18.28
2022-10-23T08:29:16.594Z,19.13
2022-10-23T08:31:45.310Z,19.31
2022-10-23T08:34:14.031Z,19.23
2022-10-23T08:36:43.748Z,19.21
2022-10-23T08:39:14.942Z,18.36
2022-10-23T08:41:47.979Z,18.68
2022-10-23T08:44:23.844Z,18.77
2022-10-23T08:46:59.553Z,18.76
2022-10-23T08:49:40.782Z,19.13
2022-10-23T08:52:16.379Z,19.64
2022-10-23T08:55:03.526Z,20.79
2022-10-23T08:57:44.537Z,21.64
2022-10-23T09:00:31.862Z,22.16
2022-10-23T09:03:03.362Z,22.73
2022-10-23T09:05:35.946Z,23.18
2022-10-23T09:08:17.839Z,23.08
2022-10-23T09:10:57.288Z,23.94
2022-10-23T09:13:38.333Z,23.81
2022-10-23T09:16:15.146Z,23.64
2022-10-23T09:18:44.360Z,24.92
2022-10-23T09:21:12.944Z,25.88
2022-10-23T09:23:41.095Z,25.99
2022-10-23T09:26:14.348Z,26.27
2022-10-23T09:28:47.974Z,26.86
2022-10-23T09:31:16.619Z,28.03
2022-10-23T09:33:55.355Z,28.54
2022-10-23T09:36:26.199Z,29.22
2022-10-23T09:38:55.586Z,29.59
2022-10-23T09:41:29.454Z,29.96
2022-10-23T09:44:12.771Z,29.62
2022-10-23T09:46:42.443Z,30.15
2022-10-23T09:49:18.602Z,30.37
2022-10-23T09:51:56.013Z,31.24
2022-10-23T09:54:25.220Z,31.23
2022-10-23T09:56:55.613Z,30.44
2022-10-23T09:59:26.947Z,28.79
2022-10-23T10:01:57.063Z,28.87
2022-10-23T10:04:36.999Z,29.98
2022-10-23T10:07:08.018Z,30.04
2022-10-23T10:09:36.145Z,28.97
2022-10-23T10:12:20.185Z,27.70
2022-10-23T10:14:55.274Z,29.11
2022-10-23T10:17:36.636Z,29.53
2022-10-23T10:20:24.063Z,30.24
2022-10-23T10:22:55.322Z,30.90
2022-10-23T10:25:28.482Z,31.50
2022-10-23T10:28:05.464Z,31.69
2022-10-23T10:33:50.706Z,32.15
2022-10-23T10:36:30.509Z,32.88
2022-10-23T10:39:02.285Z,33.04
2022-10-23T10:41:51.596Z,32.56
2022-10-23T10:44:39.747Z,31.47
2022-10-23T10:47:19.954Z,31.91
2022-10-23T10:49:56.096Z,32.58
2022-10-23T10:52:27.985Z,32.89
2022-10-23T10:55:04.338Z,32.63
2022-10-23T10:57:35.196Z,31.13
2022-10-23T11:00:07.948Z,29.82
2022-10-23T11:02:41.738Z,28.68
2022-10-23T11:05:20.691Z,28.83
2022-10-23T11:07:56.158Z,28.92
2022-10-23T11:10:26.004Z,28.91
2022-10-23T11:12:55.299Z,28.32
2022-10-23T11:15:30.025Z,27.39
2022-10-23T11:18:02.017Z,26.11
2022-10-23T11:20:46.260Z,25.73
2022-10-23T11:23:49.602Z,25.61
2022-10-23T11:26:27.245Z,25.38
2022-10-23T11:29:10.898Z,24.24
2022-10-23T11:31:47.495Z,24.03
2022-10-23T11:34:31.128Z,24.26
2022-10-23T11:37:01.717Z,24.39
2022-10-23T11:39:31.424Z,23.98
2022-10-23T11:42:01.148Z,23.22
2022-10-23T11:44:44.073Z,23.88
2022-10-23T11:47:39.293Z,24.08
2022-10-23T11:50:26.962Z,24.15
2022-10-23T11:53:13.325Z,23.95
2022-10-23T11:55:58.619Z,23.99
2022-10-23T11:58:31.988Z,24.05
2022-10-23T12:01:05.112Z,23.77
2022-10-23T12:03:51.694Z,23.03
2022-10-23T12:06:26.289Z,23.09
2022-10-23T12:08:58.302Z,22.71
2022-10-23T12:11:30.549Z,23.12
2022-10-23T12:13:59.213Z,23.12
2022-10-23T12:16:36.580Z,22.63
2022-10-23T12:19:20.288Z,22.56
2022-10-23T12:21:48.535Z,22.83
2022-10-23T12:24:39.839Z,22.94
2022-10-23T12:27:24.069Z,22.92
2022-10-23T12:30:15.907Z,23.11
2022-10-23T12:32:58.453Z,22.71
2022-10-23T12:35:50.021Z,22.79
2022-10-23T12:38:19.858Z,23.47
2022-10-23T12:40:52.856Z,24.30
2022-10-23T12:43:27.518Z,24.43
2022-10-23T12:45:56.414Z,24.71
2022-10-23T12:48:25.898Z,25.51
2022-10-23T12:50:56.759Z,26.53
2022-10-23T12:53:25.305Z,27.89
2022-10-23T12:55:57.478Z,29.45
2022-10-23T12:58:27.433Z,29.97
2022-10-23T13:00:57.265Z,31.04
2022-10-23T13:03:27.150Z,31.91
2022-10-23T13:06:00.177Z,32.10
2022-10-23T13:08:35.212Z,31.58
2022-10-23T13:11:04.618Z,32.86
2022-10-23T13:13:32.915Z,32.75
2022-10-23T13:16:00.986Z,32.88
2022-10-23T13:18:29.093Z,33.13
2022-10-23T13:23:32.378Z,32.47
2022-10-23T13:26:01.813Z,32.52
2022-10-23T13:28:31.101Z,32.62
2022-10-23T13:31:05.290Z,32.54
2022-10-23T13:33:36.413Z,32.17
2022-10-23T13:36:08.429Z,30.54
2022-10-23T13:38:37.763Z,29.90
2022-10-23T13:41:07.331Z,29.49
2022-10-23T13:43:35.635Z,28.67
2022-10-23T13:46:03.828Z,27.69
2022-10-23T13:48:31.923Z,26.93
2022-10-23T13:51:07.886Z,25.48
2022-10-23T13:53:35.957Z,26.41
2022-10-23T13:56:04.216Z,26.44
2022-10-23T13:58:32.409Z,26.71
2022-10-23T14:01:00.727Z,27.12
2022-10-23T14:03:29.641Z,27.48
2022-10-23T14:05:58.910Z,27.13
2022-10-23T14:08:29.060Z,27.86
2022-10-23T14:10:57.193Z,27.71
2022-10-23T14:13:25.287Z,27.09
2022-10-23T14:15:56.252Z,26.54
2022-10-23T14:18:24.638Z,25.87
2022-10-23T14:20:52.732Z,25.98
2022-10-23T14:23:20.818Z,26.52
2022-10-23T14:25:50.277Z,26.55
2022-10-23T14:28:18.371Z,26.37
2022-10-23T14:30:46.610Z,26.33
2022-10-23T14:33:15.067Z,24.95
2022-10-23T14:35:43.492Z,24.38
2022-10-23T14:38:12.083Z,23.26
2022-10-23T14:40:40.147Z,22.83
2022-10-23T14:43:09.546Z,22.15
2022-10-23T14:45:37.634Z,21.55
2022-10-23T14:48:06.086Z,21.04
2022-10-23T14:50:36.810Z,20.91
2022-10-23T14:53:05.213Z,20.50
2022-10-23T14:55:33.213Z,21.67
2022-10-23T14:58:01.189Z,21.99
2022-10-23T15:00:30.596Z,22.27
2022-10-23T15:02:59.263Z,22.07
2022-10-23T15:05:28.535Z,22.21
2022-10-23T15:07:59.215Z,22.29
2022-10-23T15:10:27.928Z,21.89
2022-10-23T15:12:56.104Z,21.21
2022-10-23T15:15:24.211Z,20.58
2022-10-23T15:17:53.587Z,19.45
2022-10-23T15:20:21.801Z,19.39
2022-10-23T15:22:49.903Z,18.85
2022-10-23T15:25:18.206Z,18.50
2022-10-23T15:27:46.523Z,17.94
2022-10-23T15:30:14.906Z,17.74
2022-10-23T15:32:43.347Z,17.10
2022-10-23T15:35:13.288Z,16.97
2022-10-23T15:37:42.126Z,16.98
2022-10-23T15:40:11.145Z,16.78
2022-10-23T15:42:39.250Z,16.60
2022-10-23T15:45:08.420Z,16.30
2022-10-23T15:47:36.546Z,16.16
2022-10-23T15:50:05.106Z,15.92
2022-10-23T15:52:34.432Z,15.86
2022-10-23T15:55:02.502Z,15.64
2022-10-23T15:57:31.303Z,15.56
2022-10-23T15:59:59.899Z,15.35
2022-10-23T16:02:28.291Z,15.24
2022-10-23T16:04:57.208Z,15.10
2022-10-23T16:07:26.331Z,14.99
2022-10-23T16:09:58.248Z,14.86
2022-10-23T16:12:27.239Z,14.77
2022-10-23T16:14:55.551Z,14.88
2022-10-23T16:17:24.297Z,14.83
2022-10-23T16:19:52.313Z,14.60
2022-10-23T16:22:20.351Z,14.29
2022-10-23T16:24:48.441Z,14.45
2022-10-23T16:27:18.072Z,14.32
2022-10-23T16:29:46.258Z,14.17
2022-10-23T16:32:14.307Z,14.22
2022-10-23T16:34:42.439Z,13.96
2022-10-23T16:37:11.101Z,13.81
2022-10-23T16:39:39.305Z,13.99
2022-10-23T16:42:07.558Z,13.96
2022-10-23T16:44:36.997Z,13.76
2022-10-23T16:47:06.016Z,13.87
2022-10-23T16:49:34.076Z,13.66
2022-10-23T16:52:02.150Z,13.61
2022-10-23T16:54:30.227Z,13.57
2022-10-23T16:56:58.702Z,13.76
2022-10-23T16:59:27.048Z,13.63
2022-10-23T17:01:56.994Z,13.67
2022-10-23T17:04:26.127Z,13.59
2022-10-23T17:06:54.794Z,13.61
2022-10-23T17:09:23.635Z,13.46
2022-10-23T17:11:53.913Z,13.55
2022-10-23T17:14:25.067Z,13.54
2022-10-23T17:16:53.634Z,13.42
2022-10-23T17:19:45.114Z,13.34
2022-10-23T17:22:13.569Z,13.26
2022-10-23T17:24:42.511Z,13.48
2022-10-23T17:27:11.093Z,13.46
2022-10-23T17:29:40.069Z,13.43
2022-10-23T17:32:08.453Z,13.32
2022-10-23T17:34:38.356Z,13.29
2022-10-23T17:37:06.720Z,13.22
2022-10-23T17:39:34.765Z,13.36
2022-10-23T17:42:02.970Z,13.35
2022-10-23T17:44:31.011Z,12.84
2022-10-23T17:46:59.056Z,13.20
2022-10-23T17:49:27.187Z,13.08
2022-10-23T17:51:58.217Z,13.04
2022-10-23T17:54:27.455Z,12.46
2022-10-23T17:56:55.499Z,12.88
2022-10-23T17:59:25.607Z,12.95
2022-10-23T18:01:54.903Z,12.78
2022-10-23T18:04:23.784Z,12.93
2022-10-23T18:06:54.424Z,12.96
2022-10-23T18:09:24.322Z,12.94
2022-10-23T18:11:52.878Z,12.93
2022-10-23T18:14:22.334Z,12.33
2022-10-23T18:16:50.957Z,12.91
2022-10-23T18:19:19.890Z,12.85
2022-10-23T18:21:49.108Z,12.75
2022-10-23T18:24:17.414Z,12.52
2022-10-23T18:26:48.446Z,12.66
2022-10-23T18:29:18.212Z,12.62
2022-10-23T18:31:49.012Z,12.58
2022-10-23T18:34:19.089Z,12.50
2022-10-23T18:36:48.306Z,12.17
2022-10-23T18:39:18.332Z,12.31
2022-10-23T18:41:48.106Z,12.07
2022-10-23T18:44:17.659Z,12.16
2022-10-23T18:46:46.195Z,12.18
2022-10-23T18:49:14.842Z,12.17
2022-10-23T18:51:43.107Z,12.18
2022-10-23T18:54:16.146Z,11.90
2022-10-23T18:56:44.867Z,12.06
2022-10-23T18:59:16.031Z,12.02
2022-10-23T19:01:45.241Z,12.01
2022-10-23T19:04:16.102Z,11.84
2022-10-23T19:06:44.584Z,11.91
2022-10-23T19:09:14.894Z,11.33
2022-10-23T19:11:43.867Z,11.72
2022-10-23T19:14:11.915Z,11.73
2022-10-23T19:16:44.807Z,11.72
2022-10-23T19:19:15.633Z,11.71
2022-10-23T19:21:44.252Z,11.73
2022-10-23T19:24:13.715Z,11.68
2022-10-23T19:26:42.016Z,11.52
2022-10-23T19:29:11.859Z,11.56
2022-10-23T19:31:48.836Z,11.49
2022-10-23T19:34:20.105Z,11.45
2022-10-23T19:36:48.954Z,11.37
2022-10-23T19:39:17.231Z,11.13
2022-10-23T19:41:45.935Z,11.39
2022-10-23T19:44:14.509Z,11.28
2022-10-23T19:46:43.956Z,11.34
2022-10-23T19:49:12.311Z,11.31
2022-10-23T19:51:40.477Z,11.24
2022-10-23T19:54:10.641Z,10.67
2022-10-23T19:56:39.181Z,11.14
2022-10-23T19:59:07.439Z,11.32
2022-10-23T20:01:36.233Z,11.00
2022-10-23T20:04:06.763Z,11.25
2022-10-23T20:06:35.957Z,11.19
2022-10-23T20:09:08.130Z,11.17
2022-10-23T20:11:37.833Z,11.12
2022-10-23T20:14:06.319Z,10.84
2022-10-23T20:16:36.510Z,10.90
2022-10-23T20:19:08.317Z,11.08
2022-10-23T20:21:37.241Z,11.02
2022-10-23T20:24:06.438Z,11.08
2022-10-23T20:26:34.772Z,10.99
2022-10-23T20:29:02.949Z,10.96
2022-10-23T20:31:31.482Z,11.01
2022-10-23T20:33:59.680Z,10.99
2022-10-23T20:36:30.317Z,10.88
2022-10-23T20:38:59.265Z,10.71
2022-10-23T20:41:29.054Z,10.78
2022-10-23T20:43:57.959Z,10.82
2022-10-23T20:46:27.565Z,10.76
2022-10-23T20:48:56.482Z,10.72
2022-10-23T20:51:25.765Z,10.69
2022-10-23T20:53:55.957Z,10.69
2022-10-23T20:56:30.122Z,10.67
2022-10-23T20:58:58.696Z,10.54
2022-10-23T21:01:27.225Z,10.61
2022-10-23T21:03:57.140Z,10.51
2022-10-23T21:06:26.291Z,10.51
2022-10-23T21:08:57.481Z,9.78
2022-10-23T21:11:26.335Z,10.27
2022-10-23T21:13:56.925Z,10.42
2022-10-23T21:16:28.554Z,10.34
2022-10-23T21:18:57.147Z,10.40
2022-10-23T21:21:25.859Z,10.38
2022-10-23T21:23:56.598Z,10.40
2022-10-23T21:26:25.388Z,10.40
2022-10-23T21:29:06.849Z,10.36
2022-10-23T21:31:42.421Z,10.34
2022-10-23T21:36:53.979Z,10.25
2022-10-23T21:39:29.136Z,10.21
2022-10-23T21:41:57.201Z,10.28
2022-10-23T21:44:25.697Z,10.26
2022-10-23T21:46:53.717Z,10.05
2022-10-23T21:49:21.790Z,10.18
2022-10-23T21:51:49.817Z,10.19
2022-10-23T21:54:17.803Z,10.20
2022-10-23T21:56:49.755Z,9.59
2022-10-23T21:59:19.742Z,9.68
2022-10-23T22:01:48.936Z,10.06
2022-10-23T22:04:18.267Z,10.15
2022-10-23T22:06:46.971Z,10.11
2022-10-23T22:09:17.433Z,10.08
2022-10-23T22:11:45.474Z,10.09
2022-10-23T22:14:14.879Z,10.08
2022-10-23T22:16:43.101Z,10.06
2022-10-23T22:19:11.862Z,10.04
2022-10-23T22:21:40.485Z,10.02
2022-10-23T22:24:09.312Z,9.89
2022-10-23T22:26:39.284Z,10.03
2022-10-23T22:29:09.015Z,9.99
2022-10-23T22:31:39.204Z,10.07
2022-10-23T22:34:26.645Z,10.02
2022-10-23T22:37:02.105Z,9.96
2022-10-23T22:39:30.157Z,9.92
2022-10-23T22:41:58.184Z,9.89
2022-10-23T22:44:26.209Z,9.90
2022-10-23T22:46:55.626Z,9.93
2022-10-23T22:49:23.623Z,9.92
2022-10-23T22:51:51.714Z,9.88
2022-10-23T22:54:19.705Z,9.87
2022-10-23T22:56:47.745Z,9.72
2022-10-23T22:59:15.821Z,9.79
2022-10-23T23:01:45.844Z,9.78
2022-10-23T23:04:38.205Z,9.79
2022-10-23T23:07:20.384Z,9.80
2022-10-23T23:10:07.594Z,9.78
2022-10-23T23:12:37.052Z,9.76
2022-10-23T23:15:06.479Z,9.75
2022-10-23T23:17:34.568Z,9.76
2022-10-23T23:20:04.055Z,9.76
2022-10-23T23:22:32.207Z,9.61
2022-10-23T23:25:00.429Z,9.69
2022-10-23T23:27:28.528Z,9.66
2022-10-23T23:29:58.291Z,9.63
2022-10-23T23:32:26.296Z,9.53
2022-10-23T23:34:54.300Z,9.57
2022-10-23T23:37:23.796Z,9.64
2022-10-23T23:39:51.849Z,9.64
2022-10-23T23:42:19.879Z,9.57
2022-10-23T23:44:56.001Z,9.63
2022-10-23T23:47:31.048Z,9.62
2022-10-23T23:49:59.089Z,9.52
2022-10-23T23:52:28.506Z,9.55
2022-10-23T23:54:56.542Z,9.51
2022-10-23T23:57:24.692Z,9.53
2022-10-23T23:59:52.790Z,9.52
